Time;durP1;ratioP1;P1;durP2;ratioP2;P2;SDS_P1;SDS_P2;PMS_P1;PMS_P2;Temp;Humidity;BMP_temperature;BMP_pressure;BME280_temperature;BME280_humidity;BME280_pressure;Samples;Min_cycle;Max_cycle;Signal;HPM_P1;HPM_P2
2023/05/09 00:00:12;;;;;;;18.30;11.02;;;16.80;99.90;;;;;;4999580;28;20022;-72
2023/05/09 00:02:40;;;;;;;18.85;11.10;;;16.80;99.90;;;;;;5000651;28;20065;-73
2023/05/09 00:05:06;;;;;;;18.38;11.35;;;16.80;99.90;;;;;;5000245;28;20030;-72
2023/05/09 00:07:32;;;;;;;18.25;11.52;;;16.80;99.90;;;;;;5000809;28;20054;-72
2023/05/09 00:09:59;;;;;;;17.70;11.32;;;16.80;99.90;;;;;;5000583;28;20105;-72
2023/05/09 00:12:25;;;;;;;22.45;12.88;;;16.80;99.90;;;;;;4999542;28;20026;-72
2023/05/09 00:14:53;;;;;;;19.00;12.00;;;16.80;99.90;;;;;;5000069;28;20030;-72
2023/05/09 00:17:21;;;;;;;24.23;12.38;;;16.70;99.90;;;;;;4999279;28;20019;-72
2023/05/09 00:19:47;;;;;;;19.20;10.20;;;16.70;99.90;;;;;;4999362;28;20026;-72
2023/05/09 00:22:13;;;;;;;22.38;10.90;;;16.60;99.90;;;;;;4999198;28;20032;-71
2023/05/09 00:24:39;;;;;;;20.90;11.18;;;16.40;99.90;;;;;;5000289;28;20026;-71
2023/05/09 00:27:04;;;;;;;19.85;12.32;;;16.30;99.90;;;;;;5000304;28;20028;-73
2023/05/09 00:29:30;;;;;;;16.92;10.98;;;16.30;99.90;;;;;;4999957;28;20030;-73
2023/05/09 00:31:55;;;;;;;20.75;10.90;;;16.30;99.90;;;;;;4999142;28;20073;-73
2023/05/09 00:34:21;;;;;;;19.98;11.70;;;16.40;99.90;;;;;;4998991;28;20057;-72
2023/05/09 00:36:46;;;;;;;18.58;11.93;;;16.40;99.90;;;;;;4999056;28;20077;-72
2023/05/09 00:39:12;;;;;;;24.77;12.40;;;16.30;99.90;;;;;;4998957;28;20025;-73
2023/05/09 00:41:37;;;;;;;18.08;11.77;;;16.30;99.90;;;;;;4999961;28;20026;-73
2023/05/09 00:44:03;;;;;;;22.15;13.23;;;16.30;99.90;;;;;;5000069;28;20041;-72
2023/05/09 00:46:29;;;;;;;21.85;11.77;;;16.00;99.90;;;;;;4999860;28;20122;-72
2023/05/09 00:48:55;;;;;;;22.17;12.80;;;16.10;99.90;;;;;;4999310;28;20113;-72
2023/05/09 00:51:21;;;;;;;21.67;13.35;;;16.10;99.90;;;;;;4999542;28;20027;-72
2023/05/09 00:53:46;;;;;;;26.13;13.38;;;16.10;99.90;;;;;;4998871;28;20026;-72
2023/05/09 00:56:13;;;;;;;22.13;13.10;;;16.10;99.90;;;;;;4998691;28;20023;-72
2023/05/09 00:58:39;;;;;;;21.13;12.77;;;15.90;99.90;;;;;;4998519;28;20026;-72
2023/05/09 01:01:05;;;;;;;23.15;12.50;;;15.80;99.90;;;;;;4998720;28;20034;-71
2023/05/09 01:03:31;;;;;;;19.70;12.02;;;15.90;99.90;;;;;;4999196;28;20029;-71
2023/05/09 01:06:15;;;;;;;22.85;12.43;;;15.90;99.90;;;;;;4998446;28;20053;-72
2023/05/09 01:08:56;;;;;;;20.88;12.25;;;15.90;99.90;;;;;;4999390;28;20030;-71
2023/05/09 01:11:35;;;;;;;21.35;11.25;;;15.90;99.90;;;;;;4999154;28;20030;-71
2023/05/09 01:14:19;;;;;;;23.08;12.00;;;15.80;99.90;;;;;;4999119;28;20026;-72
2023/05/09 01:16:50;;;;;;;19.42;12.45;;;15.90;99.90;;;;;;4999344;28;20100;-71
2023/05/09 01:19:29;;;;;;;17.20;11.03;;;16.00;99.90;;;;;;4998329;28;20022;-71
2023/05/09 01:21:57;;;;;;;21.65;11.48;;;16.10;99.90;;;;;;4998125;28;20262;-71
2023/05/09 01:24:44;;;;;;;20.80;12.05;;;16.20;99.90;;;;;;4998165;28;20033;-71
2023/05/09 01:27:45;;;;;;;21.05;12.00;;;16.20;99.90;;;;;;4998125;28;20042;-71
2023/05/09 01:30:12;;;;;;;19.75;11.80;;;16.30;99.90;;;;;;4978554;28;20038;-72
2023/05/09 01:32:41;;;;;;;19.08;12.52;;;16.40;99.90;;;;;;4961831;28;20042;-72
2023/05/09 01:35:10;;;;;;;19.25;11.63;;;16.30;99.90;;;;;;4977744;28;20027;-71
2023/05/09 01:37:40;;;;;;;30.02;12.32;;;16.20;99.90;;;;;;4977902;28;20070;-71
2023/05/09 01:40:09;;;;;;;22.73;12.98;;;16.10;99.90;;;;;;4977685;28;20027;-71
2023/05/09 01:42:50;;;;;;;22.30;12.35;;;16.00;99.90;;;;;;4977537;28;20026;-71
2023/05/09 01:45:17;;;;;;;21.05;12.57;;;16.00;99.90;;;;;;4961261;28;20031;-71
2023/05/09 01:47:43;;;;;;;19.92;12.75;;;15.90;99.90;;;;;;4961276;28;20031;-71
2023/05/09 01:50:10;;;;;;;23.25;13.05;;;15.90;99.90;;;;;;4961796;28;20031;-71
2023/05/09 01:52:38;;;;;;;19.73;12.35;;;15.90;99.90;;;;;;4961284;28;20023;-71
2023/05/09 01:55:05;;;;;;;20.88;11.82;;;15.90;99.90;;;;;;4961862;28;20030;-72
2023/05/09 01:57:33;;;;;;;18.50;11.23;;;15.90;99.90;;;;;;4961289;28;20031;-72
2023/05/09 01:59:59;;;;;;;25.80;12.63;;;16.00;99.90;;;;;;4960919;28;20073;-72
2023/05/09 02:02:27;;;;;;;25.38;12.85;;;16.00;99.90;;;;;;4961240;28;20092;-71
2023/05/09 02:04:55;;;;;;;21.77;13.38;;;16.00;99.90;;;;;;4994816;28;20038;-72
2023/05/09 02:07:22;;;;;;;22.08;12.70;;;16.10;99.90;;;;;;4997417;28;20093;-71
2023/05/09 02:09:49;;;;;;;20.40;12.52;;;15.90;99.90;;;;;;4997177;28;20023;-71
2023/05/09 02:12:14;;;;;;;23.45;12.98;;;16.00;99.90;;;;;;4997239;28;20155;-71
2023/05/09 02:14:40;;;;;;;21.98;12.50;;;15.90;99.90;;;;;;4997202;28;20061;-71
2023/05/09 02:17:08;;;;;;;23.30;12.57;;;15.90;99.90;;;;;;4997236;28;20027;-71
2023/05/09 02:19:34;;;;;;;24.05;12.73;;;15.80;99.90;;;;;;4997160;28;20101;-71
2023/05/09 02:22:00;;;;;;;23.60;13.35;;;15.90;99.90;;;;;;4997358;28;20042;-72
2023/05/09 02:24:26;;;;;;;24.17;13.60;;;15.70;99.90;;;;;;4997156;28;20027;-72
2023/05/09 02:26:53;;;;;;;25.92;13.38;;;15.90;99.90;;;;;;4998038;28;20030;-72
2023/05/09 02:29:22;;;;;;;21.20;12.30;;;15.90;99.90;;;;;;4997854;28;20029;-72
2023/05/09 02:31:49;;;;;;;28.55;12.82;;;15.90;99.90;;;;;;4997821;28;20023;-72
2023/05/09 02:34:15;;;;;;;22.00;12.68;;;15.90;99.90;;;;;;4997643;28;20073;-72
2023/05/09 02:36:41;;;;;;;25.15;13.15;;;15.80;99.90;;;;;;4997023;28;20022;-72
2023/05/09 02:39:07;;;;;;;19.27;12.75;;;15.90;99.90;;;;;;4997671;28;20024;-72
2023/05/09 02:41:32;;;;;;;22.20;12.00;;;15.90;99.90;;;;;;4996763;28;20019;-72
2023/05/09 02:43:58;;;;;;;18.95;11.70;;;16.00;99.90;;;;;;4996874;28;20023;-72
2023/05/09 02:46:23;;;;;;;21.25;12.35;;;16.00;99.90;;;;;;4997135;28;20061;-71
2023/05/09 02:48:50;;;;;;;21.52;12.63;;;16.10;99.90;;;;;;4996803;28;20054;-71
2023/05/09 02:51:15;;;;;;;23.17;12.30;;;16.10;99.90;;;;;;4997620;28;20018;-71
2023/05/09 02:53:41;;;;;;;20.55;11.73;;;16.00;99.90;;;;;;4996946;28;20035;-71
2023/05/09 02:56:07;;;;;;;20.27;12.48;;;16.10;99.90;;;;;;4997979;28;20030;-72
2023/05/09 02:58:33;;;;;;;24.33;12.32;;;16.10;99.90;;;;;;5001225;28;20018;-72
2023/05/09 03:00:59;;;;;;;21.10;13.02;;;16.00;99.90;;;;;;5000880;28;20032;-72
2023/05/09 03:03:24;;;;;;;20.33;11.90;;;16.00;99.90;;;;;;5001947;28;20078;-73
2023/05/09 03:05:50;;;;;;;18.25;11.65;;;16.10;99.90;;;;;;5001393;28;20107;-73
2023/05/09 03:08:15;;;;;;;19.23;11.98;;;16.10;99.90;;;;;;5001512;28;20058;-72
2023/05/09 03:10:41;;;;;;;20.38;13.05;;;16.10;99.90;;;;;;5000631;28;20085;-72
2023/05/09 03:13:07;;;;;;;20.30;12.23;;;16.10;99.90;;;;;;5000516;28;20122;-72
2023/05/09 03:15:33;;;;;;;21.95;11.10;;;16.00;99.90;;;;;;5000487;28;20080;-72
2023/05/09 03:17:58;;;;;;;19.83;11.23;;;16.00;99.90;;;;;;5001627;28;20026;-72
2023/05/09 03:20:25;;;;;;;20.90;11.35;;;16.10;99.90;;;;;;5001262;28;20033;-72
2023/05/09 03:22:51;;;;;;;18.77;10.90;;;16.00;99.90;;;;;;5001325;28;20046;-71
2023/05/09 03:25:17;;;;;;;19.80;11.18;;;15.90;99.90;;;;;;5001251;28;20026;-73
2023/05/09 03:27:42;;;;;;;19.02;11.93;;;15.90;99.90;;;;;;5000892;28;20030;-73
2023/05/09 03:30:08;;;;;;;20.85;11.73;;;15.90;99.90;;;;;;5000230;28;20042;-73
2023/05/09 03:32:33;;;;;;;21.05;12.68;;;15.80;99.90;;;;;;5001017;28;20090;-73
2023/05/09 03:34:59;;;;;;;18.67;11.50;;;15.80;99.90;;;;;;5001241;28;20034;-73
2023/05/09 03:37:25;;;;;;;27.73;12.18;;;15.80;99.90;;;;;;5001031;28;20018;-73
2023/05/09 03:39:50;;;;;;;20.48;12.57;;;15.70;99.90;;;;;;5000136;28;20038;-73
2023/05/09 03:42:16;;;;;;;19.10;11.48;;;15.80;99.90;;;;;;5000058;28;20138;-71
2023/05/09 03:44:41;;;;;;;21.60;11.13;;;15.80;99.90;;;;;;4999980;28;20030;-71
2023/05/09 03:47:07;;;;;;;21.95;11.70;;;15.90;99.90;;;;;;5001019;28;20090;-72
2023/05/09 03:49:32;;;;;;;18.77;12.27;;;15.90;99.90;;;;;;5000277;28;20022;-72
2023/05/09 03:51:58;;;;;;;22.83;12.15;;;15.90;99.90;;;;;;4999904;28;20072;-72
2023/05/09 03:54:23;;;;;;;22.98;11.82;;;16.00;99.90;;;;;;5000769;28;20045;-72
2023/05/09 03:56:49;;;;;;;19.98;12.30;;;16.00;99.90;;;;;;4999904;28;20022;-72
2023/05/09 03:59:14;;;;;;;19.77;12.18;;;16.00;99.90;;;;;;4999705;28;20116;-72
2023/05/09 04:01:40;;;;;;;21.35;12.30;;;16.00;99.90;;;;;;4999573;28;20041;-72
2023/05/09 04:04:06;;;;;;;20.83;12.57;;;16.00;99.90;;;;;;5000407;28;20030;-72
2023/05/09 04:06:32;;;;;;;22.25;12.77;;;16.00;99.90;;;;;;4999575;28;20034;-72
2023/05/09 04:08:58;;;;;;;24.70;13.77;;;16.00;99.90;;;;;;4998882;28;20045;-72
2023/05/09 04:11:23;;;;;;;22.15;12.10;;;15.80;99.90;;;;;;4999493;28;20034;-72
2023/05/09 04:13:49;;;;;;;20.27;12.55;;;15.80;99.90;;;;;;4999416;28;20077;-73
2023/05/09 04:16:14;;;;;;;21.65;13.20;;;15.80;99.90;;;;;;5000335;28;20031;-73
2023/05/09 04:18:41;;;;;;;19.98;12.10;;;15.60;99.90;;;;;;4999427;28;20029;-73
2023/05/09 04:21:06;;;;;;;20.27;12.45;;;15.60;99.90;;;;;;4999552;28;20022;-73
2023/05/09 04:23:32;;;;;;;21.00;11.85;;;15.50;99.90;;;;;;4999649;28;20088;-73
2023/05/09 04:25:57;;;;;;;20.23;12.32;;;15.50;99.90;;;;;;5000146;28;20022;-73
2023/05/09 04:28:23;;;;;;;23.20;12.90;;;15.30;99.90;;;;;;4999448;28;20153;-73
2023/05/09 04:30:49;;;;;;;21.77;12.85;;;15.20;99.90;;;;;;4998994;28;20026;-73
2023/05/09 04:33:14;;;;;;;25.48;12.93;;;15.00;99.90;;;;;;4999061;28;20041;-73
2023/05/09 04:35:40;;;;;;;20.63;12.27;;;14.80;99.90;;;;;;4998954;28;20113;-73
2023/05/09 04:38:05;;;;;;;20.40;11.73;;;14.80;99.90;;;;;;5000002;28;20134;-73
2023/05/09 04:40:32;;;;;;;20.58;11.68;;;14.80;99.90;;;;;;4999050;28;20061;-73
2023/05/09 04:42:57;;;;;;;21.85;11.95;;;15.10;99.90;;;;;;4999791;28;20022;-73
2023/05/09 04:45:23;;;;;;;24.13;12.65;;;15.40;99.90;;;;;;5000185;28;20023;-73
2023/05/09 04:47:48;;;;;;;26.10;12.40;;;15.50;99.90;;;;;;4998870;28;20022;-73
2023/05/09 04:50:15;;;;;;;19.48;12.27;;;15.40;99.90;;;;;;4998684;28;20117;-73
2023/05/09 04:52:40;;;;;;;22.35;12.65;;;15.40;99.90;;;;;;4999744;28;20076;-73
2023/05/09 04:55:06;;;;;;;19.35;11.27;;;15.40;99.90;;;;;;4999541;28;20030;-72
2023/05/09 04:57:32;;;;;;;20.20;12.13;;;15.50;99.90;;;;;;4998785;28;20077;-72
2023/05/09 04:59:58;;;;;;;28.75;12.90;;;15.60;99.90;;;;;;4998609;28;20022;-72
2023/05/09 05:02:24;;;;;;;23.35;12.75;;;15.70;99.90;;;;;;4999533;28;20037;-72
2023/05/09 05:04:50;;;;;;;20.88;11.38;;;15.70;99.90;;;;;;4998704;28;20027;-72
2023/05/09 05:07:15;;;;;;;23.40;12.30;;;15.80;99.90;;;;;;4998693;28;20022;-72
2023/05/09 05:09:41;;;;;;;20.67;12.70;;;16.00;99.90;;;;;;4999812;28;20034;-72
2023/05/09 05:12:07;;;;;;;23.58;13.50;;;15.90;99.90;;;;;;4998558;28;20027;-72
2023/05/09 05:14:33;;;;;;;22.42;12.93;;;15.60;99.90;;;;;;4999436;28;20065;-72
2023/05/09 05:16:59;;;;;;;24.65;12.80;;;15.60;99.90;;;;;;4998350;28;20077;-72
2023/05/09 05:19:25;;;;;;;22.40;12.70;;;15.60;99.90;;;;;;4999080;28;20023;-72
2023/05/09 05:21:50;;;;;;;22.17;12.88;;;15.70;99.90;;;;;;4997603;28;20025;-72
2023/05/09 05:24:16;;;;;;;21.58;13.07;;;15.70;99.90;;;;;;4998860;28;20022;-72
2023/05/09 05:26:41;;;;;;;22.83;12.80;;;15.80;99.90;;;;;;4999234;28;20061;-72
2023/05/09 05:29:07;;;;;;;20.80;12.43;;;15.90;99.90;;;;;;4997965;28;20048;-72
2023/05/09 05:31:33;;;;;;;23.58;12.50;;;16.00;99.90;;;;;;4997918;28;20022;-72
2023/05/09 05:33:58;;;;;;;25.83;12.95;;;16.10;99.90;;;;;;4997896;28;20022;-72
2023/05/09 05:36:24;;;;;;;22.98;12.80;;;16.10;99.90;;;;;;4998811;28;20026;-74
2023/05/09 05:38:50;;;;;;;21.33;12.43;;;16.20;99.90;;;;;;4998780;28;20026;-73
2023/05/09 05:41:16;;;;;;;22.83;12.55;;;16.20;99.90;;;;;;4998124;28;20026;-73
2023/05/09 05:43:41;;;;;;;25.83;13.35;;;16.30;99.90;;;;;;4997763;28;20029;-73
2023/05/09 05:46:07;;;;;;;21.30;13.02;;;16.10;99.90;;;;;;4997836;28;20030;-73
2023/05/09 05:48:32;;;;;;;19.38;12.68;;;16.30;99.90;;;;;;4997972;28;20023;-73
2023/05/09 05:50:58;;;;;;;22.10;12.02;;;16.30;99.90;;;;;;4997836;28;20026;-73
2023/05/09 05:53:23;;;;;;;21.88;12.52;;;16.20;99.90;;;;;;4997572;28;20033;-73
2023/05/09 05:55:49;;;;;;;19.55;11.35;;;16.20;99.90;;;;;;4997472;28;20029;-73
2023/05/09 05:58:14;;;;;;;20.80;11.50;;;16.40;99.90;;;;;;4997865;28;20105;-73
2023/05/09 06:00:40;;;;;;;19.90;11.57;;;16.60;99.90;;;;;;4997284;28;20045;-72
2023/05/09 06:03:06;;;;;;;22.77;11.60;;;16.50;99.90;;;;;;4997528;28;20032;-71
2023/05/09 06:05:32;;;;;;;17.85;10.88;;;16.30;99.90;;;;;;4997818;28;20029;-72
2023/05/09 06:07:57;;;;;;;19.40;11.68;;;16.30;99.90;;;;;;4997275;28;20026;-72
2023/05/09 06:10:23;;;;;;;18.80;11.70;;;16.30;99.90;;;;;;4998145;28;20033;-72
2023/05/09 06:12:48;;;;;;;17.50;10.65;;;16.30;99.90;;;;;;4997231;28;20065;-72
2023/05/09 06:15:14;;;;;;;20.77;11.70;;;16.30;99.90;;;;;;4998059;28;20113;-72
2023/05/09 06:17:40;;;;;;;17.77;10.75;;;16.30;99.90;;;;;;4997572;28;20045;-72
2023/05/09 06:20:06;;;;;;;19.10;11.18;;;16.30;99.90;;;;;;4997832;28;20076;-72
2023/05/09 06:22:31;;;;;;;18.35;10.43;;;16.60;99.90;;;;;;4997082;28;20023;-72
2023/05/09 06:24:57;;;;;;;17.90;10.48;;;16.70;99.90;;;;;;4997069;28;20033;-72
2023/05/09 06:27:22;;;;;;;16.25;9.88;;;17.00;99.90;;;;;;4997079;28;20029;-72
2023/05/09 06:29:48;;;;;;;16.33;9.80;;;17.20;99.90;;;;;;5013821;28;20030;-72
2023/05/09 06:32:13;;;;;;;16.13;9.45;;;17.40;99.90;;;;;;5012973;28;20076;-72
2023/05/09 06:34:40;;;;;;;18.65;11.13;;;17.40;99.90;;;;;;4997941;28;20029;-72
2023/05/09 06:37:06;;;;;;;15.85;9.93;;;17.20;99.90;;;;;;4998026;28;20022;-72
2023/05/09 06:39:32;;;;;;;16.17;10.45;;;17.00;99.90;;;;;;4997822;28;20077;-73
2023/05/09 06:41:58;;;;;;;16.88;10.10;;;17.10;99.90;;;;;;4997096;28;20022;-73
2023/05/09 06:44:23;;;;;;;16.88;10.65;;;17.30;99.90;;;;;;4997162;28;20029;-72
2023/05/09 06:46:49;;;;;;;16.90;10.25;;;17.50;99.90;;;;;;4997627;28;20029;-72
2023/05/09 06:49:14;;;;;;;17.92;10.85;;;17.60;99.90;;;;;;4997048;28;20034;-73
2023/05/09 06:51:40;;;;;;;18.52;10.45;;;17.40;99.90;;;;;;4996780;28;20041;-72
2023/05/09 06:54:05;;;;;;;19.90;11.32;;;17.60;99.90;;;;;;4997661;28;20026;-72
2023/05/09 06:56:31;;;;;;;18.30;11.23;;;17.40;99.90;;;;;;4997206;28;20022;-73
2023/05/09 06:58:57;;;;;;;18.67;11.63;;;17.00;99.90;;;;;;4996807;28;20057;-72
2023/05/09 07:01:22;;;;;;;21.65;12.23;;;16.80;99.90;;;;;;4997769;28;20031;-71
2023/05/09 07:03:48;;;;;;;21.15;11.80;;;16.60;99.90;;;;;;4997808;28;20032;-72
2023/05/09 07:06:13;;;;;;;17.13;11.35;;;16.70;99.90;;;;;;4996938;28;20219;-72
2023/05/09 07:08:39;;;;;;;18.38;11.40;;;16.90;99.90;;;;;;4997451;28;20023;-71
2023/05/09 07:11:04;;;;;;;18.05;10.90;;;16.90;99.90;;;;;;4996783;28;20030;-71
2023/05/09 07:13:30;;;;;;;18.88;10.30;;;16.90;99.90;;;;;;4996700;28;20085;-72
2023/05/09 07:15:56;;;;;;;18.58;10.40;;;17.00;99.90;;;;;;4996618;28;20172;-71
2023/05/09 07:18:22;;;;;;;18.88;11.55;;;17.30;99.90;;;;;;4997534;28;20018;-73
2023/05/09 07:20:47;;;;;;;18.38;10.40;;;17.10;99.90;;;;;;4996426;28;20025;-73
2023/05/09 07:23:13;;;;;;;20.05;11.00;;;16.90;99.90;;;;;;4996502;28;20085;-73
2023/05/09 07:25:38;;;;;;;17.50;10.15;;;16.90;99.90;;;;;;4997187;28;20072;-73
2023/05/09 07:28:04;;;;;;;16.98;11.15;;;17.00;99.90;;;;;;4996500;28;20030;-74
2023/05/09 07:30:29;;;;;;;19.48;11.48;;;16.90;99.90;;;;;;4997419;28;20034;-75
2023/05/09 07:32:55;;;;;;;17.63;11.38;;;17.00;99.90;;;;;;4997503;28;20022;-74
2023/05/09 07:35:20;;;;;;;19.45;11.48;;;17.40;99.90;;;;;;4996484;28;20097;-73
2023/05/09 07:37:46;;;;;;;19.17;11.23;;;17.30;99.90;;;;;;4997532;28;20022;-73
2023/05/09 07:40:12;;;;;;;19.10;11.60;;;17.20;99.90;;;;;;4996590;28;20029;-73
2023/05/09 07:42:38;;;;;;;17.17;12.05;;;17.20;99.90;;;;;;4997792;28;20025;-73
2023/05/09 07:45:05;;;;;;;17.45;11.05;;;17.40;99.90;;;;;;4999972;28;20029;-73
2023/05/09 07:47:31;;;;;;;17.40;10.73;;;17.50;99.90;;;;;;5000142;28;20045;-74
2023/05/09 07:49:57;;;;;;;21.42;11.32;;;17.80;99.90;;;;;;4999785;28;20031;-74
2023/05/09 07:52:22;;;;;;;19.75;11.00;;;17.70;99.90;;;;;;5000109;28;20033;-74
2023/05/09 07:54:48;;;;;;;21.55;12.20;;;17.60;99.90;;;;;;5000839;28;20032;-73
2023/05/09 07:57:13;;;;;;;15.75;11.00;;;17.60;99.90;;;;;;4999715;28;20027;-74
2023/05/09 07:59:39;;;;;;;19.38;11.23;;;17.60;99.90;;;;;;4999791;28;20023;-74
2023/05/09 08:02:05;;;;;;;16.75;10.75;;;17.90;99.90;;;;;;5000117;28;20034;-73
2023/05/09 08:04:30;;;;;;;16.90;10.38;;;17.90;99.90;;;;;;5000011;28;20034;-73
2023/05/09 08:06:56;;;;;;;21.17;11.25;;;17.90;99.90;;;;;;5000756;28;20027;-73
2023/05/09 08:09:22;;;;;;;18.92;11.45;;;17.90;99.90;;;;;;5000792;28;20102;-73
2023/05/09 08:11:47;;;;;;;24.10;12.20;;;18.00;99.90;;;;;;4999792;28;20034;-74
2023/05/09 08:14:13;;;;;;;19.30;11.77;;;17.90;99.90;;;;;;4999601;28;20038;-73
2023/05/09 08:16:38;;;;;;;17.65;10.98;;;17.90;99.90;;;;;;5000670;28;20026;-73
2023/05/09 08:19:04;;;;;;;17.10;10.65;;;18.00;99.90;;;;;;4999932;28;20057;-73
2023/05/09 08:21:29;;;;;;;18.13;10.95;;;18.30;99.90;;;;;;5000192;28;20108;-73
2023/05/09 08:23:55;;;;;;;16.83;11.27;;;18.40;99.90;;;;;;4999587;28;20026;-73
2023/05/09 08:26:22;;;;;;;18.35;11.52;;;18.20;99.90;;;;;;4999451;28;20041;-73
2023/05/09 08:28:48;;;;;;;15.77;10.18;;;18.30;99.90;;;;;;4999364;28;20027;-73
2023/05/09 08:31:14;;;;;;;17.70;10.82;;;18.50;99.90;;;;;;4999206;28;20049;-73
2023/05/09 08:33:39;;;;;;;20.88;11.65;;;18.50;99.90;;;;;;4999235;28;20022;-73
2023/05/09 08:36:05;;;;;;;22.80;10.93;;;18.80;99.90;;;;;;5000017;28;20084;-73
2023/05/09 08:38:31;;;;;;;15.50;11.10;;;18.80;99.90;;;;;;5000017;28;20019;-73
2023/05/09 08:41:00;;;;;;;17.23;10.45;;;18.80;99.90;;;;;;4999083;28;20121;-73
2023/05/09 08:43:27;;;;;;;17.13;10.82;;;18.80;99.90;;;;;;5000146;28;20030;-73
2023/05/09 08:46:04;;;;;;;15.70;10.75;;;18.90;99.90;;;;;;4998943;28;20030;-73
2023/05/09 08:48:30;;;;;;;18.10;10.00;;;18.90;99.90;;;;;;5000372;28;20018;-73
2023/05/09 08:50:56;;;;;;;15.32;10.52;;;18.90;99.90;;;;;;4999653;28;20030;-73
2023/05/09 08:53:22;;;;;;;17.05;10.98;;;18.70;99.90;;;;;;4999760;28;20048;-73
2023/05/09 08:55:51;;;;;;;17.27;10.57;;;18.50;99.90;;;;;;4998428;28;20081;-73
2023/05/09 08:58:18;;;;;;;23.15;11.10;;;18.60;99.90;;;;;;4998751;28;20025;-73
2023/05/09 09:00:45;;;;;;;17.08;11.05;;;18.40;99.90;;;;;;4999018;28;20054;-73
2023/05/09 09:03:11;;;;;;;18.95;11.93;;;18.30;99.90;;;;;;4999188;28;20152;-73
2023/05/09 09:05:40;;;;;;;16.70;10.82;;;18.20;99.90;;;;;;5000061;28;20062;-73
2023/05/09 09:08:06;;;;;;;18.05;10.60;;;18.10;99.90;;;;;;4999658;28;20104;-73
2023/05/09 09:10:32;;;;;;;20.42;10.85;;;18.10;99.90;;;;;;4999263;28;20030;-72
2023/05/09 09:13:04;;;;;;;19.92;11.55;;;18.30;99.90;;;;;;4998563;28;20058;-73
2023/05/09 09:15:35;;;;;;;21.38;11.35;;;18.50;99.90;;;;;;4999155;28;20026;-73
2023/05/09 09:18:05;;;;;;;20.83;11.90;;;18.70;99.90;;;;;;4999309;28;20110;-73
2023/05/09 09:20:33;;;;;;;20.47;11.63;;;18.60;99.90;;;;;;4998307;28;20022;-73
2023/05/09 09:23:00;;;;;;;19.50;11.00;;;18.60;99.90;;;;;;4999088;28;20032;-73
2023/05/09 09:25:26;;;;;;;18.42;10.93;;;18.40;99.90;;;;;;4998173;28;20022;-73
2023/05/09 09:27:51;;;;;;;15.50;10.07;;;18.60;99.90;;;;;;4998276;28;20053;-73
2023/05/09 09:30:17;;;;;;;20.40;11.40;;;18.80;99.90;;;;;;4998528;28;20026;-73
2023/05/09 09:32:43;;;;;;;17.42;11.15;;;18.70;99.90;;;;;;4998951;28;20118;-73
2023/05/09 09:35:10;;;;;;;17.48;10.85;;;18.80;99.90;;;;;;4998987;28;20157;-73
2023/05/09 09:37:38;;;;;;;20.98;12.77;;;19.20;99.90;;;;;;4997924;28;20022;-73
2023/05/09 09:40:11;;;;;;;17.98;11.70;;;19.20;99.90;;;;;;4999011;28;20026;-73
2023/05/09 09:42:46;;;;;;;16.52;10.57;;;18.90;99.90;;;;;;5014482;28;20022;-73
2023/05/09 09:45:14;;;;;;;16.90;11.20;;;18.70;99.90;;;;;;4997911;28;20022;-73
2023/05/09 09:47:42;;;;;;;19.35;10.93;;;18.70;99.90;;;;;;4997770;28;20032;-73
2023/05/09 09:50:14;;;;;;;18.90;10.85;;;18.80;99.90;;;;;;4998238;28;20034;-73
2023/05/09 09:52:52;;;;;;;;;;;19.10;99.90;;;;;;4998429;28;20037;-73
2023/05/09 09:55:19;;;;;;;20.08;11.40;;;19.10;99.90;;;;;;4998594;28;20026;-73
2023/05/09 09:57:46;;;;;;;18.33;11.23;;;18.80;99.90;;;;;;4998539;28;20102;-73
2023/05/09 10:00:14;;;;;;;19.65;12.13;;;18.90;99.90;;;;;;4997381;28;20027;-73
2023/05/09 10:02:51;;;;;;;22.13;12.15;;;18.90;99.90;;;;;;4998401;28;20030;-73
2023/05/09 10:05:28;;;;;;;19.73;11.68;;;18.90;99.90;;;;;;4997414;28;20061;-73
2023/05/09 10:07:55;;;;;;;20.45;11.80;;;18.90;99.90;;;;;;4997140;28;20034;-73
2023/05/09 10:10:22;;;;;;;17.65;11.68;;;18.80;99.90;;;;;;4997343;28;20022;-73
2023/05/09 10:12:50;;;;;;;20.33;10.93;;;18.60;99.90;;;;;;4997225;28;20030;-73
2023/05/09 10:15:19;;;;;;;20.80;11.73;;;18.80;99.90;;;;;;4997154;28;20026;-73
2023/05/09 10:17:44;;;;;;;18.58;11.73;;;18.90;99.90;;;;;;4998577;28;20106;-73
2023/05/09 10:20:12;;;;;;;19.90;12.40;;;19.10;99.90;;;;;;4997989;28;20097;-73
2023/05/09 10:22:39;;;;;;;17.95;11.90;;;19.00;99.90;;;;;;4997527;28;20022;-73
2023/05/09 10:25:11;;;;;;;18.85;12.23;;;18.90;99.90;;;;;;4997500;28;20030;-73
2023/05/09 10:27:40;;;;;;;23.52;11.65;;;18.80;99.90;;;;;;4998024;28;20077;-73
2023/05/09 10:30:12;;;;;;;21.17;10.57;;;18.80;99.90;;;;;;4997350;28;20061;-73
2023/05/09 10:33:01;;;;;;;20.88;12.05;;;19.00;99.90;;;;;;4998043;28;20037;-73
2023/05/09 10:35:31;;;;;;;20.33;12.93;;;18.90;99.90;;;;;;4997870;28;20038;-73
2023/05/09 10:37:58;;;;;;;18.23;11.88;;;18.90;99.90;;;;;;4997378;28;20076;-73
2023/05/09 10:40:26;;;;;;;21.55;11.95;;;18.90;99.90;;;;;;4997891;28;20022;-73
2023/05/09 10:42:51;;;;;;;17.55;11.25;;;18.70;99.90;;;;;;4997722;28;20022;-73
2023/05/09 10:45:20;;;;;;;20.58;12.40;;;18.70;99.90;;;;;;4996849;28;20023;-73
2023/05/09 10:47:48;;;;;;;23.20;12.25;;;18.80;99.90;;;;;;4997034;28;20030;-73
2023/05/09 10:50:14;;;;;;;16.60;10.35;;;18.80;99.90;;;;;;4997710;28;20058;-73
2023/05/09 10:53:16;;;;;;;18.52;11.15;;;19.20;99.90;;;;;;4997723;28;20034;-73
2023/05/09 10:55:55;;;;;;;18.40;11.23;;;19.50;99.90;;;;;;4996635;28;20026;-73
2023/05/09 10:58:32;;;;;;;16.50;11.23;;;19.50;99.90;;;;;;4997731;28;20023;-73
2023/05/09 11:00:59;;;;;;;17.77;10.52;;;19.60;99.90;;;;;;4997587;28;20027;-73
2023/05/09 11:03:26;;;;;;;16.10;10.40;;;19.70;99.90;;;;;;4996602;28;20100;-73
2023/05/09 11:05:53;;;;;;;16.13;9.52;;;19.70;99.90;;;;;;4997687;28;20030;-72
2023/05/09 11:08:19;;;;;;;15.63;9.48;;;19.60;99.90;;;;;;4997869;28;20081;-73
2023/05/09 11:10:45;;;;;;;15.23;10.27;;;19.60;99.90;;;;;;4996933;28;20034;-73
2023/05/09 11:13:10;;;;;;;17.52;10.00;;;19.60;99.90;;;;;;4997044;28;20030;-73
2023/05/09 11:15:58;;;;;;;16.05;10.20;;;19.90;99.90;;;;;;4996756;28;20041;-73
2023/05/09 11:18:23;;;;;;;19.73;11.35;;;19.90;99.90;;;;;;4997364;28;20023;-73
2023/05/09 11:20:50;;;;;;;15.48;10.60;;;19.80;99.90;;;;;;5001330;28;20073;-73
2023/05/09 11:23:18;;;;;;;19.23;12.80;;;19.60;99.90;;;;;;5001365;28;20061;-74
2023/05/09 11:25:48;;;;;;;17.83;11.90;;;19.10;99.90;;;;;;5000537;28;20026;-73
2023/05/09 11:28:28;;;;;;;19.70;11.68;;;19.30;99.90;;;;;;5001838;28;20022;-74
2023/05/09 11:31:12;;;;;;;17.45;11.73;;;19.50;99.90;;;;;;5001409;28;20030;-74
2023/05/09 11:33:38;;;;;;;20.27;11.63;;;19.20;99.90;;;;;;5001161;28;20050;-74
2023/05/09 11:36:28;;;;;;;18.27;11.70;;;19.50;99.90;;;;;;5000953;28;20030;-74
2023/05/09 11:39:07;;;;;;;27.15;12.20;;;19.60;99.90;;;;;;5000447;28;20033;-74
2023/05/09 11:41:45;;;;;;;20.48;12.07;;;19.50;99.90;;;;;;5000118;28;20022;-74
2023/05/09 11:44:18;;;;;;;24.42;11.70;;;19.50;99.90;;;;;;5000898;28;20057;-74
2023/05/09 11:46:46;;;;;;;21.77;12.20;;;19.50;99.90;;;;;;5001979;28;20018;-73
2023/05/09 11:49:12;;;;;;;18.52;12.00;;;19.60;99.90;;;;;;5000754;28;20018;-73
2023/05/09 11:51:38;;;;;;;18.27;11.63;;;19.70;99.90;;;;;;5000753;28;20018;-73
2023/05/09 11:54:07;;;;;;;17.13;11.30;;;19.50;99.90;;;;;;4999838;28;20064;-73
2023/05/09 11:56:34;;;;;;;17.30;11.35;;;19.60;99.90;;;;;;4999862;28;20033;-73
2023/05/09 11:59:00;;;;;;;18.52;12.48;;;19.80;99.90;;;;;;5000169;28;20022;-73
2023/05/09 12:01:27;;;;;;;22.45;12.25;;;19.70;99.90;;;;;;5000937;28;20045;-73
2023/05/09 12:03:52;;;;;;;20.67;11.32;;;19.60;99.90;;;;;;5000787;28;20053;-73
2023/05/09 12:06:18;;;;;;;20.38;10.57;;;19.40;99.90;;;;;;5087078;22;20040;-71
2023/05/09 12:08:45;;;;;;;19.33;12.05;;;19.50;99.90;;;;;;5099446;28;20111;-70
2023/05/09 12:11:12;;;;;;;18.17;11.07;;;19.80;99.90;;;;;;5099315;28;20020;-70
2023/05/09 12:13:49;;;;;;;17.98;11.20;;;19.90;99.90;;;;;;5100512;28;20020;-70
2023/05/09 12:16:16;;;;;;;14.95;9.75;;;19.60;99.90;;;;;;5099418;28;20048;-71
2023/05/09 12:18:50;;;;;;;15.32;9.20;;;19.90;99.90;;;;;;5100055;28;20024;-71
2023/05/09 12:21:17;;;;;;;16.23;9.13;;;20.00;99.90;;;;;;5100235;28;20020;-71
2023/05/09 12:23:43;;;;;;;13.02;7.95;;;20.00;99.90;;;;;;5099908;28;20141;-71
2023/05/09 12:26:09;;;;;;;14.38;9.30;;;20.00;99.90;;;;;;5098985;28;20102;-71
2023/05/09 12:28:35;;;;;;;11.82;7.75;;;19.70;99.90;;;;;;5100037;28;20081;-71